x

Bay Of Campeche - 214 Nm Ne Of Veracruz, Mx (42055) Wave Buoy

2:50pm - Sat 6th Feb 2016 All times are UTC.

  • Sig Wave height 4.6ft
  • Swell Direction
  • Peak Period 8s
  • Average Period 6s
  • Wind
    13mph, 16mph gusts
  • Sea Temp 75°f
  • Air Temp 70°f
  • Sea Pressure 1025.1mb

More Historic Weather Station data

Upgrade to MSW Pro to gain access to the past 30 days of data for over 8000 Wavebouys and Weather Stations around the globe.

Join Pro

Comparision Forecast

View Surf forecast
   
Sat 02/06 2:50pm 4.5ft 8s 6s 13 16 mph 1025.1mb 75f 70f
1:50pm 5ft 9s 6s 16 20 mph 1024.3mb 75f 70f
12:50pm 4.5ft 9s 6s 13 18 mph 1023.4mb 75f 71f
11:50am 5ft 9s 6s 11 16 mph 1022.5mb 75f 71f
10:50am 4.5ft 8s 6s 13 16 mph 1021.7mb 75f 70f
9:50am 5ft 9s 6s 9 13 mph 1021.5mb 75f 71f
8:50am 5ft 8s 6s 9 11 mph 1021.6mb 75f 70f
7:50am 5.5ft 9s 6s 9 13 mph 1021.9mb 75f 70f
6:50am 5.5ft 8s 6s 11 13 mph 1022.4mb 75f 70f
5:50am 6ft 8s 6s 11 13 mph 1022.8mb 75f 70f
4:50am 6ft 9s 6s 13 16 mph 1022.9mb 75f 70f
3:50am 6ft 8s 6s 13 16 mph 1022.7mb 75f 70f
2:50am 6ft 8s 6s 11 16 mph 1022.8mb 75f 70f
1:50am 6ft 9s 6s 16 18 mph 1022.3mb 75f 69f
12:50am 6.5ft 9s 6s 16 18 mph 1021.8mb 75f 69f
Fri 02/05 11:50pm 6ft 10s 6s 16 20 mph 1021.3mb 75f 69f
10:50pm 7ft 8s 7s 16 20 mph 1021.7mb 75f 69f
9:50pm 7ft 9s 7s 11 16 mph 1022mb 75f 70f
8:50pm 7ft 9s 7s 11 16 mph 1022.6mb 75f 69f
7:50pm 8ft 9s 7s 11 16 mph 1023.2mb 75f 69f
6:50pm 8.5ft 9s 7s 13 18 mph 1024.3mb 75f 69f
5:50pm 9ft 9s 7s 11 16 mph 1025.9mb 75f 69f
4:50pm 8ft 9s 7s 13 18 mph 1026.7mb 75f 68f
3:50pm 8ft 9s 7s 13 16 mph 1027mb 75f 68f
2:50pm 7.5ft 10s 7s 16 18 mph 1026.8mb 75f 69f
1:50pm 9ft 9s 7s 16 20 mph 1026.7mb 75f 68f
12:50pm 9.5ft 10s 7s 16 22 mph 1026.3mb 75f 67f
11:50am 9.5ft 9s 7s 16 20 mph 1025.8mb 75f 67f
10:50am 10ft 10s 7s 16 20 mph 1025.5mb 75f 67f
9:50am 10.5ft 10s 7s 18 22 mph 1025.6mb 75f 67f
8:50am 10ft 10s 7s 18 25 mph 1025.9mb 75f 67f
7:50am 11ft 10s 7s 20 25 mph 1026.4mb 75f 67f
6:50am 10ft 10s 7s 22 27 mph 1026.5mb 75f 67f
5:50am 10ft 10s 7s 22 29 mph 1026.7mb 75f 68f
4:50am 10.5ft 9s 7s 25 29 mph 1026.6mb 75f 68f
3:50am 11.5ft 9s 7s 27 31 mph 1026.3mb 75f 68f
2:50am 11.5ft 10s 7s 25 31 mph 1026mb 75f 68f
1:50am 12ft 9s 7s 27 34 mph 1025.3mb 75f 68f
12:50am 11ft 10s 7s 27 34 mph 1024.5mb 75f 68f
Thu 02/04 11:50pm 12.5ft 9s 7s 29 34 mph 1023.8mb 75f 68f
10:50pm 12.5ft 9s 7s 29 36 mph 1023.1mb 75f 69f
9:50pm 11ft 9s 7s 31 38 mph 1022.7mb 75f 69f
8:50pm 12.5ft 10s 7s 31 38 mph 1022.4mb 75f 69f
7:50pm 13ft 9s 7s 29 36 mph 1022.4mb 75f 70f
6:50pm 12ft 9s 7s 31 36 mph 1022.8mb 75f 70f
5:50pm 12ft 9s 7s 29 36 mph 1023.3mb 75f 71f
4:50pm 10.5ft 9s 6s 31 40 mph 1023.7mb 75f 71f
3:50pm 11ft 10s 7s 31 36 mph 1023.1mb 75f 71f
2:50pm 12ft 10s 6s 31 38 mph 1022mb 75f 71f
1:50pm 12ft 10s 7s 31 38 mph 1020.7mb 75f 71f
12:50pm 11ft 9s 6s 31 36 mph 1019.7mb 75f 72f
11:50am 10.5ft 9s 7s 29 36 mph 1018.2mb 75f 72f
10:50am 10.5ft 9s 6s 29 34 mph 1017.3mb 75f 72f
9:50am 10.5ft 10s 6s 29 36 mph 1016.9mb 75f 72f
8:50am 11.5ft 9s 7s 29 36 mph 1016.7mb 75f 73f
7:50am 10ft 9s 6s 29 34 mph 1016.5mb 76f 73f
6:50am 10ft 8s 6s 27 34 mph 1016.4mb 76f 74f
5:50am 10ft 9s 6s 27 34 mph 1016.3mb 76f 74f
4:50am 10ft 8s 6s 27 34 mph 1016mb 76f 74f
3:50am 9ft 7s 6s 27 31 mph 1015.4mb 76f 74f
2:50am 7ft 7s 5s 27 31 mph 1014.6mb 76f 74f
1:50am 6ft 7s 5s 25 29 mph 1013.7mb 76f 74f
12:50am 5ft 6s 5s 25 31 mph 1012.5mb 76f 74f
Wed 02/03 11:50pm 5.5ft 8s 5s 20 22 mph 1011.9mb 76f 75f
10:50pm 4.5ft 6s 5s 18 22 mph 1011.3mb 76f 75f
9:50pm 4.5ft 6s 5s 18 25 mph 1010.9mb 76f 75f
8:50pm 4ft 6s 4s 20 22 mph 1010.8mb 76f 74f
7:50pm 3.5ft 6s 5s 18 20 mph 1011mb 76f 74f
6:50pm 3.5ft 6s 5s 2
mph
1011.5mb 77f 76f
5:50pm 3.5ft 6s 5s 4
mph
1011.8mb 76f 76f
4:50pm 3.5ft 7s 5s 2 4 mph 1012.3mb 76f 77f
3:50pm 3ft 7s 5s 4
mph
1012mb 76f 76f
2:50pm 3.5ft 7s 5s 2 4 mph 1011.1mb 76f 76f
1:50pm 3.5ft 6s 5s 4
mph
1010.3mb 76f 76f
12:50pm 3.5ft 7s 5s 2 4 mph 1009.2mb 76f 76f
11:50am 3.5ft 7s 5s 4 7 mph 1008.2mb 76f 76f
10:50am 3.5ft 7s 5s 7
mph
1007.8mb 76f 76f
9:50am 4ft 7s 5s 2 4 mph 1007.8mb 76f 76f
8:50am 4ft 7s 5s 2 7 mph 1008mb 76f 76f
7:50am 4.5ft 7s 5s 7
mph
1007.6mb 76f 77f
6:50am 5ft 7s 6s 9
mph
1007.7mb 76f 77f
5:50am 5ft 7s 6s 7 9 mph 1007.6mb 76f 77f
4:50am 5ft 7s 6s 9 11 mph 1007.7mb 76f 77f
3:50am 5.5ft 7s 6s 13 16 mph 1007.1mb 76f 77f
2:50am 5.5ft 8s 5s 16 18 mph 1006.4mb 76f 76f
1:50am 5.5ft 7s 5s 18 22 mph 1005.8mb 76f 76f
12:50am 6ft 7s 5s 18 20 mph 1005.4mb 76f 76f
Tue 02/02 11:50pm 6.5ft 7s 6s 18 20 mph 1005.1mb 76f 76f
10:50pm 6ft 7s 5s 18 20 mph 1005mb 76f 76f
9:50pm 6ft 7s 5s 18 22 mph 1004.7mb 76f 76f
8:50pm 6.5ft 7s 5s 20 22 mph 1005mb 76f 76f
7:50pm 7ft 6s 5s 22 25 mph 1004.8mb 76f 76f
6:50pm 6ft 6s 5s 22 27 mph 1005.7mb 76f 76f
5:50pm 6ft 6s 5s 25 29 mph 1006.5mb 76f 76f
4:50pm 6ft 6s 5s 25 29 mph 1006.9mb 76f 76f